createdAt,value
2023-01-12T00:00:12.675Z,5.60
2023-01-12T00:02:45.829Z,5.60
2023-01-12T00:05:15.268Z,5.60
2023-01-12T00:07:45.604Z,5.60
2023-01-12T00:10:13.885Z,5.50
2023-01-12T00:12:43.519Z,5.50
2023-01-12T00:15:11.958Z,5.40
2023-01-12T00:17:40.082Z,5.40
2023-01-12T00:20:12.004Z,5.30
2023-01-12T00:22:40.163Z,5.30
2023-01-12T00:25:09.972Z,5.30
2023-01-12T00:27:38.073Z,5.30
2023-01-12T00:30:09.205Z,5.30
2023-01-12T00:32:37.261Z,5.30
2023-01-12T00:35:10.847Z,5.30
2023-01-12T00:37:39.005Z,5.20
2023-01-12T00:40:09.775Z,5.20
2023-01-12T00:42:55.176Z,5.20
2023-01-12T00:45:24.982Z,5.20
2023-01-12T00:47:54.369Z,5.20
2023-01-12T00:50:25.010Z,5.20
2023-01-12T00:52:53.100Z,5.20
2023-01-12T00:55:21.096Z,5.20
2023-01-12T00:57:49.587Z,5.20
2023-01-12T01:00:18.558Z,5.30
2023-01-12T01:02:51.063Z,5.30
2023-01-12T01:05:19.068Z,5.40
2023-01-12T01:07:47.501Z,5.40
2023-01-12T01:10:16.479Z,5.40
2023-01-12T01:12:44.788Z,5.40
2023-01-12T01:15:13.234Z,5.40
2023-01-12T01:17:41.395Z,5.30
2023-01-12T01:20:13.282Z,5.40
2023-01-12T01:22:41.526Z,5.50
2023-01-12T01:25:10.530Z,5.50
2023-01-12T01:27:38.869Z,5.50
2023-01-12T01:30:08.379Z,5.50
2023-01-12T01:32:36.876Z,5.50
2023-01-12T01:35:12.827Z,5.50
2023-01-12T01:37:40.920Z,5.50
2023-01-12T01:40:20.420Z,5.60
2023-01-12T01:42:48.420Z,5.60
2023-01-12T01:45:16.910Z,5.60
2023-01-12T01:47:51.989Z,5.60
2023-01-12T01:50:24.951Z,5.70
2023-01-12T01:52:56.195Z,5.60
2023-01-12T01:55:29.499Z,5.60
2023-01-12T01:58:02.012Z,5.60
2023-01-12T02:00:30.384Z,5.50
2023-01-12T02:03:00.647Z,5.60
2023-01-12T02:08:46.692Z,5.50
2023-01-12T02:11:30.469Z,5.60
2023-01-12T02:14:18.406Z,5.60
2023-01-12T02:17:03.974Z,5.60
2023-01-12T02:19:52.744Z,5.60
2023-01-12T02:22:45.005Z,5.60
2023-01-12T02:25:32.833Z,5.60
2023-01-12T02:28:34.437Z,5.60
2023-01-12T02:31:32.849Z,5.50
2023-01-12T02:34:09.212Z,5.60
2023-01-12T02:36:46.099Z,5.60
2023-01-12T02:39:21.263Z,5.60
2023-01-12T02:42:14.815Z,5.60
2023-01-12T02:44:53.128Z,5.50
2023-01-12T02:47:28.784Z,5.50
2023-01-12T02:50:00.971Z,5.50
2023-01-12T02:52:33.096Z,5.50
2023-01-12T02:55:02.844Z,5.40
2023-01-12T02:57:34.252Z,5.40
2023-01-12T03:00:03.721Z,5.30
2023-01-12T03:02:33.631Z,5.30
2023-01-12T03:05:01.648Z,5.30
2023-01-12T03:07:39.783Z,5.30
2023-01-12T03:19:28.951Z,5.20
2023-01-12T03:22:02.052Z,5.20
2023-01-12T03:24:38.530Z,5.20
2023-01-12T03:27:13.362Z,5.20
2023-01-12T03:29:47.124Z,5.30
2023-01-12T03:32:15.397Z,5.30
2023-01-12T03:34:47.008Z,5.30
2023-01-12T03:37:23.957Z,5.30
2023-01-12T03:40:01.242Z,5.30
2023-01-12T03:42:32.820Z,5.40
2023-01-12T03:45:18.626Z,5.40
2023-01-12T03:47:48.688Z,5.40
2023-01-12T03:50:22.375Z,5.50
2023-01-12T03:52:52.207Z,5.50
2023-01-12T03:55:24.244Z,5.60
2023-01-12T03:57:53.530Z,5.60
2023-01-12T04:00:23.535Z,5.60
2023-01-12T04:03:02.907Z,5.60
2023-01-12T04:05:32.138Z,5.70
2023-01-12T04:08:00.080Z,5.70
2023-01-12T04:10:27.953Z,5.70
2023-01-12T04:12:54.940Z,5.70
2023-01-12T04:15:22.925Z,5.80
2023-01-12T04:17:50.872Z,5.80
2023-01-12T04:20:18.991Z,5.80
2023-01-12T04:22:47.751Z,5.80
2023-01-12T04:25:17.703Z,5.80
2023-01-12T04:27:48.719Z,5.80
2023-01-12T04:30:30.356Z,5.80
2023-01-12T04:32:58.813Z,5.90
2023-01-12T04:35:27.688Z,5.90
2023-01-12T04:37:57.055Z,5.90
2023-01-12T04:40:25.083Z,5.90
2023-01-12T04:43:08.246Z,5.90
2023-01-12T04:45:38.907Z,5.90
2023-01-12T04:48:09.380Z,5.90
2023-01-12T04:50:38.368Z,5.90
2023-01-12T04:53:09.059Z,5.90
2023-01-12T04:55:38.903Z,5.90
2023-01-12T04:58:07.341Z,6.00
2023-01-12T05:00:35.645Z,6.00
2023-01-12T05:03:03.842Z,6.00
2023-01-12T05:05:34.248Z,6.00
2023-01-12T05:08:21.120Z,6.00
2023-01-12T05:10:52.031Z,6.00
2023-01-12T05:13:20.070Z,6.00
2023-01-12T05:15:48.016Z,6.00
2023-01-12T05:18:15.916Z,6.00
2023-01-12T05:20:43.842Z,6.10
2023-01-12T05:23:11.765Z,6.10
2023-01-12T05:25:39.747Z,6.10
2023-01-12T05:28:09.009Z,6.10
2023-01-12T05:30:36.968Z,6.10
2023-01-12T05:33:05.011Z,6.10
2023-01-12T05:35:32.840Z,6.00
2023-01-12T05:38:00.789Z,6.10
2023-01-12T05:40:28.680Z,6.10
2023-01-12T05:43:14.078Z,6.10
2023-01-12T05:45:43.295Z,6.10
2023-01-12T05:48:11.912Z,6.10
2023-01-12T05:50:39.783Z,6.10
2023-01-12T05:53:10.823Z,6.10
2023-01-12T05:55:39.235Z,6.10
2023-01-12T05:58:07.177Z,6.20
2023-01-12T06:00:35.092Z,6.20
2023-01-12T06:03:04.549Z,6.10
2023-01-12T06:05:32.410Z,6.10
2023-01-12T06:08:00.682Z,6.10
2023-01-12T06:10:28.575Z,6.10
2023-01-12T06:13:13.831Z,6.10
2023-01-12T06:15:41.728Z,6.10
2023-01-12T06:18:11.037Z,6.10
2023-01-12T06:20:38.931Z,6.10
2023-01-12T06:23:06.966Z,6.00
2023-01-12T06:25:34.875Z,6.00
2023-01-12T06:28:02.851Z,6.00
2023-01-12T06:30:30.719Z,6.00
2023-01-12T06:33:02.768Z,6.00
2023-01-12T06:35:32.059Z,6.00
2023-01-12T06:38:00.480Z,6.00
2023-01-12T06:40:28.365Z,6.00
2023-01-12T06:42:56.277Z,6.00
2023-01-12T06:45:24.118Z,6.10
2023-01-12T06:47:52.242Z,6.10
2023-01-12T06:50:20.377Z,6.20
2023-01-12T06:52:50.143Z,6.20
2023-01-12T06:55:18.098Z,6.10
2023-01-12T06:57:45.981Z,6.20
2023-01-12T07:00:15.001Z,6.20
2023-01-12T07:02:43.416Z,6.10
2023-01-12T07:05:11.360Z,6.20
2023-01-12T07:07:40.389Z,6.20
2023-01-12T07:10:11.486Z,6.20
2023-01-12T07:12:39.663Z,6.20
2023-01-12T07:15:08.851Z,6.20
2023-01-12T07:17:37.058Z,6.20
2023-01-12T07:20:05.580Z,6.20
2023-01-12T07:22:34.180Z,6.20
2023-01-12T07:25:02.126Z,6.20
2023-01-12T07:27:31.389Z,6.20
2023-01-12T07:29:59.243Z,6.30
2023-01-12T07:32:29.659Z,6.30
2023-01-12T07:34:57.641Z,6.20
2023-01-12T07:37:25.598Z,6.30
2023-01-12T07:39:53.481Z,6.30
2023-01-12T07:42:24.239Z,6.30
2023-01-12T07:44:54.703Z,6.40
2023-01-12T07:47:22.809Z,6.40
2023-01-12T07:49:50.639Z,6.40
2023-01-12T07:52:18.591Z,6.40
2023-01-12T07:54:46.458Z,6.40
2023-01-12T07:57:14.565Z,6.40
2023-01-12T07:59:42.434Z,6.50
2023-01-12T08:02:16.340Z,6.50
2023-01-12T08:04:44.683Z,6.50
2023-01-12T08:07:12.774Z,6.50
2023-01-12T08:09:40.719Z,6.60
2023-01-12T08:12:08.744Z,6.60
2023-01-12T08:14:38.971Z,6.60
2023-01-12T08:17:11.120Z,6.60
2023-01-12T08:19:46.856Z,6.70
2023-01-12T08:22:20.243Z,6.70
2023-01-12T08:24:52.926Z,6.70
2023-01-12T08:27:24.974Z,6.70
2023-01-12T08:29:56.310Z,6.70
2023-01-12T08:32:24.675Z,6.80
2023-01-12T08:34:55.269Z,6.80
2023-01-12T08:37:25.537Z,6.80
2023-01-12T08:39:54.017Z,6.80
2023-01-12T08:42:24.695Z,6.70
2023-01-12T08:44:54.389Z,6.80
2023-01-12T08:47:27.063Z,6.80
2023-01-12T08:49:56.968Z,6.80
2023-01-12T08:52:25.529Z,6.80
2023-01-12T08:54:53.410Z,6.80
2023-01-12T08:57:21.305Z,6.80
2023-01-12T08:59:49.285Z,6.80
2023-01-12T09:02:17.404Z,6.90
2023-01-12T09:04:45.604Z,6.90
2023-01-12T09:07:17.052Z,6.90
2023-01-12T09:09:44.975Z,6.90
2023-01-12T09:12:12.840Z,6.90
2023-01-12T09:14:40.750Z,7.00
2023-01-12T09:17:08.897Z,7.00
2023-01-12T09:19:37.114Z,7.00
2023-01-12T09:22:05.030Z,7.10
2023-01-12T09:24:34.644Z,7.00
2023-01-12T09:27:02.600Z,7.10
2023-01-12T09:29:30.558Z,7.10
2023-01-12T09:31:58.457Z,7.10
2023-01-12T09:34:26.406Z,7.00
2023-01-12T09:36:56.240Z,7.00
2023-01-12T09:39:28.476Z,7.10
2023-01-12T09:42:17.267Z,7.10
2023-01-12T09:45:05.148Z,7.10
2023-01-12T09:47:37.187Z,7.10
2023-01-12T09:50:10.397Z,7.20
2023-01-12T09:52:42.838Z,7.20
2023-01-12T09:55:17.321Z,7.20
2023-01-12T09:58:27.128Z,7.10
2023-01-12T10:00:58.016Z,7.20
2023-01-12T10:03:31.001Z,7.20
2023-01-12T10:06:01.433Z,7.20
2023-01-12T10:08:33.756Z,7.20
2023-01-12T10:11:08.858Z,7.20
2023-01-12T10:13:56.212Z,7.20
2023-01-12T10:16:36.578Z,7.20
2023-01-12T10:19:14.281Z,7.30
2023-01-12T10:21:42.856Z,7.30
2023-01-12T10:24:13.756Z,7.30
2023-01-12T10:26:44.078Z,7.30
2023-01-12T10:29:13.668Z,7.30
2023-01-12T10:31:41.628Z,7.30
2023-01-12T10:34:11.886Z,7.40
2023-01-12T10:36:44.080Z,7.40
2023-01-12T10:39:30.065Z,7.40
2023-01-12T10:42:36.806Z,7.50
2023-01-12T10:45:18.670Z,7.50
2023-01-12T10:47:47.900Z,7.50
2023-01-12T10:50:25.081Z,7.50
2023-01-12T10:52:59.315Z,7.50
2023-01-12T10:55:32.256Z,7.50
2023-01-12T10:58:00.573Z,7.50
2023-01-12T11:00:30.795Z,7.50
2023-01-12T11:02:59.111Z,7.40
2023-01-12T11:05:31.153Z,7.30
2023-01-12T11:07:59.449Z,7.30
2023-01-12T11:10:29.988Z,7.40
2023-01-12T11:13:00.133Z,7.40
2023-01-12T11:15:31.002Z,7.40
2023-01-12T11:18:23.249Z,7.30
2023-01-12T11:20:55.496Z,7.30
2023-01-12T11:23:29.914Z,7.30
2023-01-12T11:26:00.807Z,7.30
2023-01-12T11:28:33.520Z,7.20
2023-01-12T11:31:09.570Z,7.20
2023-01-12T11:33:43.536Z,7.30
2023-01-12T11:36:15.899Z,7.20
2023-01-12T11:38:50.091Z,7.10
2023-01-12T11:41:25.553Z,7.20
2023-01-12T11:44:01.037Z,7.10
2023-01-12T11:46:35.940Z,7.10
2023-01-12T11:49:12.657Z,7.10
2023-01-12T11:51:41.355Z,7.10
2023-01-12T11:54:16.035Z,7.10
2023-01-12T11:57:18.246Z,7.20
2023-01-12T11:59:57.709Z,7.20
2023-01-12T12:02:37.942Z,7.30
2023-01-12T12:05:24.971Z,7.20
2023-01-12T12:08:17.295Z,7.30
2023-01-12T12:10:50.883Z,7.30
2023-01-12T12:13:30.192Z,7.20
2023-01-12T12:16:16.371Z,7.10
2023-01-12T12:19:30.944Z,7.10
2023-01-12T12:22:08.019Z,7.10
2023-01-12T12:24:58.240Z,7.10
2023-01-12T12:27:40.875Z,7.10
2023-01-12T12:30:30.923Z,7.00
2023-01-12T12:33:06.706Z,7.00
2023-01-12T12:35:57.088Z,7.00
2023-01-12T12:38:47.224Z,6.90
2023-01-12T12:41:41.902Z,7.00
2023-01-12T12:44:45.708Z,7.00
2023-01-12T12:47:44.025Z,7.00
2023-01-12T12:50:27.127Z,6.90
2023-01-12T12:53:41.792Z,6.90
2023-01-12T12:56:14.963Z,6.90
2023-01-12T12:58:52.936Z,6.90
2023-01-12T13:01:58.442Z,7.00
2023-01-12T13:08:03.424Z,6.90
2023-01-12T13:10:37.934Z,6.90
2023-01-12T13:13:38.316Z,6.90
2023-01-12T13:16:51.925Z,6.90
2023-01-12T13:19:36.896Z,6.90
2023-01-12T13:22:30.102Z,6.90
2023-01-12T13:25:02.822Z,7.00
2023-01-12T13:27:55.591Z,7.00
2023-01-12T13:30:41.691Z,7.00
2023-01-12T13:33:29.918Z,7.00
2023-01-12T13:36:11.310Z,7.00
2023-01-12T13:39:13.821Z,6.90
2023-01-12T13:42:01.794Z,6.90
2023-01-12T13:44:37.600Z,6.80
2023-01-12T13:47:11.508Z,6.80
2023-01-12T13:49:48.019Z,6.80
2023-01-12T13:52:28.079Z,6.80
2023-01-12T13:54:59.722Z,6.80
2023-01-12T13:57:29.614Z,6.80
2023-01-12T14:00:09.209Z,6.80
2023-01-12T14:02:42.168Z,6.80
2023-01-12T14:05:26.118Z,6.80
2023-01-12T14:08:06.144Z,6.80
2023-01-12T14:10:39.054Z,6.80
2023-01-12T14:13:26.303Z,6.80
2023-01-12T14:16:19.755Z,6.80
2023-01-12T14:18:49.816Z,6.80
2023-01-12T14:21:24.469Z,6.90
2023-01-12T14:23:52.794Z,6.90
2023-01-12T14:26:25.639Z,6.90
2023-01-12T14:28:54.497Z,6.90
2023-01-12T14:31:31.846Z,6.90
2023-01-12T14:34:04.839Z,6.90
2023-01-12T14:36:36.872Z,6.90
2023-01-12T14:39:10.027Z,6.90
2023-01-12T14:42:06.366Z,6.90
2023-01-12T14:44:57.419Z,6.90
2023-01-12T14:47:28.957Z,6.90
2023-01-12T14:49:56.988Z,6.90
2023-01-12T14:52:30.906Z,6.90
2023-01-12T14:55:18.120Z,6.90
2023-01-12T14:57:51.024Z,7.00
2023-01-12T15:00:22.452Z,7.00
2023-01-12T15:02:53.222Z,7.00
2023-01-12T15:05:25.618Z,6.90
2023-01-12T15:07:57.236Z,6.90
2023-01-12T15:10:34.757Z,6.90
2023-01-12T15:13:24.769Z,6.90
2023-01-12T15:16:11.034Z,6.90
2023-01-12T15:18:58.325Z,6.80
2023-01-12T15:21:45.463Z,6.90
2023-01-12T15:24:42.327Z,6.80
2023-01-12T15:27:12.931Z,6.80
2023-01-12T15:29:42.102Z,6.80
2023-01-12T15:32:19.053Z,6.90
2023-01-12T15:34:49.134Z,6.90
2023-01-12T15:37:18.325Z,6.90
2023-01-12T15:39:46.872Z,6.90
2023-01-12T15:42:20.139Z,6.90
2023-01-12T15:44:50.907Z,6.90
2023-01-12T15:47:20.071Z,6.90
2023-01-12T15:49:51.216Z,6.90
2023-01-12T15:52:22.322Z,6.90
2023-01-12T15:54:51.014Z,7.00
2023-01-12T15:57:20.196Z,7.00
2023-01-12T15:59:48.250Z,7.00
2023-01-12T16:02:31.707Z,7.00
2023-01-12T16:05:01.202Z,7.10
2023-01-12T16:07:30.149Z,7.10
2023-01-12T16:09:58.422Z,7.10
2023-01-12T16:12:26.493Z,7.10
2023-01-12T16:14:56.531Z,7.10
2023-01-12T16:17:24.430Z,7.10
2023-01-12T16:19:52.457Z,7.20
2023-01-12T16:22:25.176Z,7.20
2023-01-12T16:24:54.691Z,7.20
2023-01-12T16:27:25.255Z,7.20
2023-01-12T16:29:53.555Z,7.30
2023-01-12T16:32:24.427Z,7.20
2023-01-12T16:34:52.502Z,7.20
2023-01-12T16:37:23.195Z,7.20
2023-01-12T16:39:51.238Z,7.20
2023-01-12T16:42:19.173Z,7.20
2023-01-12T16:44:50.604Z,7.30
2023-01-12T16:47:20.899Z,7.20
2023-01-12T16:49:50.953Z,7.20
2023-01-12T16:52:23.013Z,7.20
2023-01-12T16:54:51.427Z,7.20
2023-01-12T16:57:21.569Z,7.30
2023-01-12T16:59:50.214Z,7.30
2023-01-12T17:02:19.961Z,7.30
2023-01-12T17:04:51.897Z,7.30
2023-01-12T17:07:21.606Z,7.30
2023-01-12T17:09:49.733Z,7.30
2023-01-12T17:12:17.957Z,7.30
2023-01-12T17:14:46.261Z,7.30
2023-01-12T17:17:14.355Z,7.40
2023-01-12T17:19:43.597Z,7.30
2023-01-12T17:22:12.438Z,7.40
2023-01-12T17:24:42.264Z,7.40
2023-01-12T17:27:11.531Z,7.50
2023-01-12T17:29:39.769Z,7.40
2023-01-12T17:32:08.675Z,7.40
2023-01-12T17:34:38.172Z,7.40
2023-01-12T17:37:08.687Z,7.50
2023-01-12T17:39:39.611Z,7.50
2023-01-12T17:42:28.343Z,7.50
2023-01-12T17:44:56.255Z,7.50
2023-01-12T17:47:25.275Z,7.50
2023-01-12T17:49:54.763Z,7.50
2023-01-12T17:52:22.866Z,7.50
2023-01-12T17:54:51.806Z,7.50
2023-01-12T17:57:21.091Z,7.40
2023-01-12T17:59:49.958Z,7.40
2023-01-12T18:02:18.311Z,7.40
2023-01-12T18:04:46.601Z,7.40
2023-01-12T18:07:14.501Z,7.40
2023-01-12T18:09:42.923Z,7.40
2023-01-12T18:12:12.342Z,7.40
2023-01-12T18:14:46.387Z,7.40
2023-01-12T18:17:14.361Z,7.40
2023-01-12T18:19:42.696Z,7.40
2023-01-12T18:22:15.102Z,7.50
2023-01-12T18:24:43.955Z,7.50
2023-01-12T18:27:11.852Z,7.50
2023-01-12T18:29:39.991Z,7.50
2023-01-12T18:32:09.577Z,7.50
2023-01-12T18:34:37.862Z,7.40
2023-01-12T18:37:07.896Z,7.50
2023-01-12T18:39:35.863Z,7.50
2023-01-12T18:42:21.073Z,7.40
2023-01-12T18:44:49.501Z,7.50
2023-01-12T18:47:36.141Z,7.50
2023-01-12T18:50:26.723Z,7.50
2023-01-12T18:53:12.221Z,7.50
2023-01-12T18:55:41.482Z,7.50
2023-01-12T18:58:09.465Z,7.50
2023-01-12T19:00:38.918Z,7.50
2023-01-12T19:03:08.931Z,7.50
2023-01-12T19:05:46.063Z,7.50
2023-01-12T19:08:31.531Z,7.50
2023-01-12T19:11:08.668Z,7.50
2023-01-12T19:13:54.098Z,7.50
2023-01-12T19:16:40.320Z,7.50
2023-01-12T19:19:09.798Z,7.60
2023-01-12T19:21:55.202Z,7.50
2023-01-12T19:24:40.568Z,7.60
2023-01-12T19:27:30.182Z,7.60
2023-01-12T19:29:58.299Z,7.60
2023-01-12T19:32:26.228Z,7.50
2023-01-12T19:35:02.304Z,7.50
2023-01-12T19:37:34.152Z,7.60
2023-01-12T19:40:13.161Z,7.60
2023-01-12T19:43:06.883Z,7.60
2023-01-12T19:45:38.016Z,7.60
2023-01-12T19:48:07.382Z,7.60
2023-01-12T19:50:37.080Z,7.70
2023-01-12T19:53:06.160Z,7.70
2023-01-12T19:55:35.626Z,7.60
2023-01-12T19:58:08.669Z,7.70
2023-01-12T20:00:37.992Z,7.70
2023-01-12T20:03:06.031Z,7.70
2023-01-12T20:05:38.548Z,7.70
2023-01-12T20:08:07.435Z,7.70
2023-01-12T20:10:37.058Z,7.70
2023-01-12T20:13:05.561Z,7.80
2023-01-12T20:15:34.092Z,7.80
2023-01-12T20:18:03.064Z,7.80
2023-01-12T20:20:31.585Z,7.80
2023-01-12T20:23:04.322Z,7.80
2023-01-12T20:25:32.395Z,7.80
2023-01-12T20:28:00.376Z,7.80
2023-01-12T20:30:43.505Z,7.80
2023-01-12T20:33:12.421Z,7.80
2023-01-12T20:35:46.318Z,7.80
2023-01-12T20:38:16.972Z,7.70
2023-01-12T20:40:46.108Z,7.70
2023-01-12T20:43:14.560Z,7.80
2023-01-12T20:45:44.109Z,7.80
2023-01-12T20:48:14.181Z,7.80
2023-01-12T20:50:46.385Z,7.80
2023-01-12T20:53:16.433Z,7.80
2023-01-12T20:55:45.426Z,7.80
2023-01-12T20:58:16.431Z,7.70
2023-01-12T21:00:44.868Z,7.70
2023-01-12T21:03:12.998Z,7.70
2023-01-12T21:05:42.967Z,7.70
2023-01-12T21:08:11.452Z,7.70
2023-01-12T21:10:42.241Z,7.70
2023-01-12T21:13:10.235Z,7.70
2023-01-12T21:15:38.149Z,7.70
2023-01-12T21:18:06.150Z,7.70
2023-01-12T21:20:41.812Z,7.70
2023-01-12T21:23:09.940Z,7.80
2023-01-12T21:25:43.402Z,7.80
2023-01-12T21:28:43.130Z,7.80
2023-01-12T21:31:13.246Z,7.80
2023-01-12T21:33:41.154Z,7.80
2023-01-12T21:36:10.853Z,7.80
2023-01-12T21:38:38.924Z,7.80
2023-01-12T21:41:12.384Z,7.90
2023-01-12T21:43:40.544Z,7.90
2023-01-12T21:46:11.746Z,7.90
2023-01-12T21:53:15.528Z,7.90
2023-01-12T21:55:43.671Z,7.90
2023-01-12T21:58:13.324Z,7.80
2023-01-12T22:00:41.534Z,7.80
2023-01-12T22:03:09.932Z,7.80
2023-01-12T22:05:39.007Z,7.90
2023-01-12T22:08:07.329Z,7.90
2023-01-12T22:10:35.537Z,7.90
2023-01-12T22:13:30.439Z,8.00
2023-01-12T22:16:03.342Z,8.00
2023-01-12T22:18:31.567Z,8.00
2023-01-12T22:21:03.246Z,7.90
2023-01-12T22:23:31.690Z,8.00
2023-01-12T22:26:02.872Z,8.00
2023-01-12T22:28:32.947Z,8.00
2023-01-12T22:31:08.074Z,8.00
2023-01-12T22:33:36.345Z,8.00
2023-01-12T22:36:05.159Z,8.00
2023-01-12T22:38:33.550Z,8.00
2023-01-12T22:41:07.859Z,8.00
2023-01-12T22:43:40.803Z,8.00
2023-01-12T22:46:15.903Z,8.00
2023-01-12T22:48:49.792Z,8.00
2023-01-12T22:51:18.357Z,8.00
2023-01-12T22:53:46.411Z,8.00
2023-01-12T22:56:46.025Z,8.00
2023-01-12T22:59:15.463Z,8.00
2023-01-12T23:01:43.673Z,8.00
2023-01-12T23:04:13.472Z,8.00
2023-01-12T23:06:42.641Z,8.10
2023-01-12T23:09:11.876Z,8.00
2023-01-12T23:11:40.084Z,8.10
2023-01-12T23:14:08.881Z,8.00
2023-01-12T23:16:38.611Z,8.00
2023-01-12T23:19:06.805Z,8.00
2023-01-12T23:21:35.073Z,8.00
2023-01-12T23:24:03.277Z,8.00
2023-01-12T23:26:33.295Z,8.00
2023-01-12T23:29:03.366Z,8.00
2023-01-12T23:31:33.706Z,8.00
2023-01-12T23:34:03.877Z,8.00
2023-01-12T23:36:33.027Z,8.00
2023-01-12T23:39:03.302Z,8.00
2023-01-12T23:41:33.403Z,8.00
2023-01-12T23:44:02.942Z,8.00
2023-01-12T23:46:34.044Z,8.00
2023-01-12T23:49:04.098Z,8.00
2023-01-12T23:51:32.876Z,8.00
2023-01-12T23:54:02.778Z,8.00
2023-01-12T23:56:32.742Z,8.00
2023-01-12T23:59:01.070Z,8.00
